sensor_id;sensor_type;location;lat;lon;timestamp;P1;durP1;ratioP1;P2;durP2;ratioP2
15254;SDS011;7730;49.610;11.136;2023-12-07T00:00:03;16.00;;;10.10;;
15254;SDS011;7730;49.610;11.136;2023-12-07T00:02:31;16.43;;;10.17;;
15254;SDS011;7730;49.610;11.136;2023-12-07T00:04:59;17.67;;;11.33;;
15254;SDS011;7730;49.610;11.136;2023-12-07T00:07:26;17.30;;;11.10;;
15254;SDS011;7730;49.610;11.136;2023-12-07T00:09:53;17.43;;;10.43;;
15254;SDS011;7730;49.610;11.136;2023-12-07T00:12:21;16.90;;;10.80;;
15254;SDS011;7730;49.610;11.136;2023-12-07T00:14:48;15.60;;;10.00;;
15254;SDS011;7730;49.610;11.136;2023-12-07T00:17:15;15.40;;;9.20;;
15254;SDS011;7730;49.610;11.136;2023-12-07T00:19:42;16.47;;;10.70;;
15254;SDS011;7730;49.610;11.136;2023-12-07T00:22:11;16.70;;;10.10;;
15254;SDS011;7730;49.610;11.136;2023-12-07T00:24:41;17.25;;;10.30;;
15254;SDS011;7730;49.610;11.136;2023-12-07T00:27:08;15.97;;;9.70;;
15254;SDS011;7730;49.610;11.136;2023-12-07T00:29:36;15.37;;;9.57;;
15254;SDS011;7730;49.610;11.136;2023-12-07T00:32:05;15.27;;;10.07;;
15254;SDS011;7730;49.610;11.136;2023-12-07T00:34:32;15.80;;;10.17;;
15254;SDS011;7730;49.610;11.136;2023-12-07T00:37:02;15.40;;;9.90;;
15254;SDS011;7730;49.610;11.136;2023-12-07T00:39:31;15.77;;;9.90;;
15254;SDS011;7730;49.610;11.136;2023-12-07T00:42:02;15.80;;;9.60;;
15254;SDS011;7730;49.610;11.136;2023-12-07T00:44:31;15.53;;;9.57;;
15254;SDS011;7730;49.610;11.136;2023-12-07T00:46:58;15.73;;;9.93;;
15254;SDS011;7730;49.610;11.136;2023-12-07T00:49:25;15.53;;;9.40;;
15254;SDS011;7730;49.610;11.136;2023-12-07T00:51:53;16.47;;;10.43;;
15254;SDS011;7730;49.610;11.136;2023-12-07T00:54:22;17.67;;;12.15;;
15254;SDS011;7730;49.610;11.136;2023-12-07T00:56:53;18.87;;;12.20;;
15254;SDS011;7730;49.610;11.136;2023-12-07T00:59:22;16.43;;;10.90;;
15254;SDS011;7730;49.610;11.136;2023-12-07T01:01:51;18.37;;;12.17;;
15254;SDS011;7730;49.610;11.136;2023-12-07T01:04:18;17.13;;;11.43;;
15254;SDS011;7730;49.610;11.136;2023-12-07T01:06:45;18.23;;;12.27;;
15254;SDS011;7730;49.610;11.136;2023-12-07T01:09:13;17.73;;;11.37;;
15254;SDS011;7730;49.610;11.136;2023-12-07T01:11:40;18.03;;;10.93;;
15254;SDS011;7730;49.610;11.136;2023-12-07T01:14:09;16.87;;;10.63;;
15254;SDS011;7730;49.610;11.136;2023-12-07T01:16:37;17.83;;;11.77;;
15254;SDS011;7730;49.610;11.136;2023-12-07T01:19:04;17.20;;;10.80;;
15254;SDS011;7730;49.610;11.136;2023-12-07T01:21:32;17.57;;;11.53;;
15254;SDS011;7730;49.610;11.136;2023-12-07T01:23:59;17.63;;;10.60;;
15254;SDS011;7730;49.610;11.136;2023-12-07T01:26:26;16.90;;;10.37;;
15254;SDS011;7730;49.610;11.136;2023-12-07T01:28:54;16.77;;;10.40;;
15254;SDS011;7730;49.610;11.136;2023-12-07T01:31:23;16.73;;;10.90;;
15254;SDS011;7730;49.610;11.136;2023-12-07T01:33:50;18.17;;;11.23;;
15254;SDS011;7730;49.610;11.136;2023-12-07T01:36:17;16.97;;;10.70;;
15254;SDS011;7730;49.610;11.136;2023-12-07T01:38:44;16.07;;;10.03;;
15254;SDS011;7730;49.610;11.136;2023-12-07T01:41:11;16.43;;;10.50;;
15254;SDS011;7730;49.610;11.136;2023-12-07T01:43:41;16.87;;;10.07;;
15254;SDS011;7730;49.610;11.136;2023-12-07T01:46:11;16.50;;;10.53;;
15254;SDS011;7730;49.610;11.136;2023-12-07T01:48:42;15.57;;;9.60;;
15254;SDS011;7730;49.610;11.136;2023-12-07T01:51:09;16.17;;;9.87;;
15254;SDS011;7730;49.610;11.136;2023-12-07T01:53:38;16.43;;;10.27;;
15254;SDS011;7730;49.610;11.136;2023-12-07T01:56:07;17.63;;;10.17;;
15254;SDS011;7730;49.610;11.136;2023-12-07T01:58:35;17.00;;;10.50;;
15254;SDS011;7730;49.610;11.136;2023-12-07T02:01:05;15.97;;;9.87;;
15254;SDS011;7730;49.610;11.136;2023-12-07T02:03:32;16.13;;;9.77;;
15254;SDS011;7730;49.610;11.136;2023-12-07T02:06:00;16.13;;;9.73;;
15254;SDS011;7730;49.610;11.136;2023-12-07T02:08:28;16.77;;;10.23;;
15254;SDS011;7730;49.610;11.136;2023-12-07T02:10:55;16.17;;;9.70;;
15254;SDS011;7730;49.610;11.136;2023-12-07T02:13:22;16.83;;;11.40;;
15254;SDS011;7730;49.610;11.136;2023-12-07T02:15:50;16.50;;;10.33;;
15254;SDS011;7730;49.610;11.136;2023-12-07T02:18:19;15.33;;;9.60;;
15254;SDS011;7730;49.610;11.136;2023-12-07T02:20:50;14.97;;;9.27;;
15254;SDS011;7730;49.610;11.136;2023-12-07T02:23:21;15.10;;;9.30;;
15254;SDS011;7730;49.610;11.136;2023-12-07T02:25:51;14.83;;;9.20;;
15254;SDS011;7730;49.610;11.136;2023-12-07T02:28:20;15.43;;;9.63;;
15254;SDS011;7730;49.610;11.136;2023-12-07T02:30:47;15.23;;;9.20;;
15254;SDS011;7730;49.610;11.136;2023-12-07T02:33:15;15.93;;;9.73;;
15254;SDS011;7730;49.610;11.136;2023-12-07T02:35:42;15.97;;;9.93;;
15254;SDS011;7730;49.610;11.136;2023-12-07T02:38:11;15.80;;;9.80;;
15254;SDS011;7730;49.610;11.136;2023-12-07T02:40:38;16.27;;;9.33;;
15254;SDS011;7730;49.610;11.136;2023-12-07T02:43:06;15.97;;;9.27;;
15254;SDS011;7730;49.610;11.136;2023-12-07T02:45:35;15.53;;;9.33;;
15254;SDS011;7730;49.610;11.136;2023-12-07T02:48:02;15.57;;;9.53;;
15254;SDS011;7730;49.610;11.136;2023-12-07T02:50:32;15.97;;;9.70;;
15254;SDS011;7730;49.610;11.136;2023-12-07T02:52:59;15.93;;;9.73;;
15254;SDS011;7730;49.610;11.136;2023-12-07T02:55:26;15.83;;;9.73;;
15254;SDS011;7730;49.610;11.136;2023-12-07T02:57:55;15.50;;;9.50;;
15254;SDS011;7730;49.610;11.136;2023-12-07T03:00:22;16.43;;;10.13;;
15254;SDS011;7730;49.610;11.136;2023-12-07T03:02:51;16.53;;;10.23;;
15254;SDS011;7730;49.610;11.136;2023-12-07T03:05:26;15.23;;;9.47;;
15254;SDS011;7730;49.610;11.136;2023-12-07T03:08:04;16.20;;;10.20;;
15254;SDS011;7730;49.610;11.136;2023-12-07T03:10:33;16.23;;;10.10;;
15254;SDS011;7730;49.610;11.136;2023-12-07T03:13:00;16.50;;;10.13;;
15254;SDS011;7730;49.610;11.136;2023-12-07T03:15:28;15.80;;;9.77;;
15254;SDS011;7730;49.610;11.136;2023-12-07T03:17:56;16.13;;;10.30;;
15254;SDS011;7730;49.610;11.136;2023-12-07T03:20:26;16.33;;;9.93;;
15254;SDS011;7730;49.610;11.136;2023-12-07T03:22:53;15.53;;;9.03;;
15254;SDS011;7730;49.610;11.136;2023-12-07T03:25:20;16.27;;;9.63;;
15254;SDS011;7730;49.610;11.136;2023-12-07T03:27:47;16.47;;;9.80;;
15254;SDS011;7730;49.610;11.136;2023-12-07T03:30:14;15.27;;;9.00;;
15254;SDS011;7730;49.610;11.136;2023-12-07T03:32:43;15.90;;;9.40;;
15254;SDS011;7730;49.610;11.136;2023-12-07T03:35:12;15.33;;;9.10;;
15254;SDS011;7730;49.610;11.136;2023-12-07T03:37:39;14.50;;;8.60;;
15254;SDS011;7730;49.610;11.136;2023-12-07T03:40:07;14.77;;;8.40;;
15254;SDS011;7730;49.610;11.136;2023-12-07T03:42:35;15.57;;;8.57;;
15254;SDS011;7730;49.610;11.136;2023-12-07T03:45:02;14.33;;;8.43;;
15254;SDS011;7730;49.610;11.136;2023-12-07T03:47:31;14.90;;;8.30;;
15254;SDS011;7730;49.610;11.136;2023-12-07T03:49:57;14.93;;;8.70;;
15254;SDS011;7730;49.610;11.136;2023-12-07T03:52:26;14.80;;;8.80;;
15254;SDS011;7730;49.610;11.136;2023-12-07T03:54:54;15.20;;;8.53;;
15254;SDS011;7730;49.610;11.136;2023-12-07T03:57:21;14.10;;;7.87;;
15254;SDS011;7730;49.610;11.136;2023-12-07T03:59:48;14.13;;;8.27;;
15254;SDS011;7730;49.610;11.136;2023-12-07T04:02:15;14.23;;;8.00;;
15254;SDS011;7730;49.610;11.136;2023-12-07T04:04:45;14.97;;;8.03;;
15254;SDS011;7730;49.610;11.136;2023-12-07T04:07:12;13.93;;;8.07;;
15254;SDS011;7730;49.610;11.136;2023-12-07T04:09:41;13.80;;;7.70;;
15254;SDS011;7730;49.610;11.136;2023-12-07T04:12:10;14.57;;;8.20;;
15254;SDS011;7730;49.610;11.136;2023-12-07T04:14:37;14.30;;;8.20;;
15254;SDS011;7730;49.610;11.136;2023-12-07T04:17:04;14.47;;;8.33;;
15254;SDS011;7730;49.610;11.136;2023-12-07T04:19:35;14.23;;;7.93;;
15254;SDS011;7730;49.610;11.136;2023-12-07T04:22:03;14.95;;;8.48;;
15254;SDS011;7730;49.610;11.136;2023-12-07T04:24:32;14.37;;;7.87;;
15254;SDS011;7730;49.610;11.136;2023-12-07T04:27:00;15.40;;;8.20;;
15254;SDS011;7730;49.610;11.136;2023-12-07T04:29:27;14.43;;;8.10;;
15254;SDS011;7730;49.610;11.136;2023-12-07T04:31:55;15.50;;;7.93;;
15254;SDS011;7730;49.610;11.136;2023-12-07T04:34:22;14.93;;;8.17;;
15254;SDS011;7730;49.610;11.136;2023-12-07T04:36:51;15.33;;;8.20;;
15254;SDS011;7730;49.610;11.136;2023-12-07T04:39:18;13.63;;;7.93;;
15254;SDS011;7730;49.610;11.136;2023-12-07T04:41:45;15.43;;;8.63;;
15254;SDS011;7730;49.610;11.136;2023-12-07T04:44:15;15.10;;;8.40;;
15254;SDS011;7730;49.610;11.136;2023-12-07T04:46:44;14.70;;;8.50;;
15254;SDS011;7730;49.610;11.136;2023-12-07T04:49:11;15.17;;;8.30;;
15254;SDS011;7730;49.610;11.136;2023-12-07T04:51:38;14.47;;;8.80;;
15254;SDS011;7730;49.610;11.136;2023-12-07T04:54:07;14.50;;;8.37;;
15254;SDS011;7730;49.610;11.136;2023-12-07T04:56:34;14.80;;;8.43;;
15254;SDS011;7730;49.610;11.136;2023-12-07T05:01:41;15.07;;;8.27;;
15254;SDS011;7730;49.610;11.136;2023-12-07T05:04:09;15.10;;;8.67;;
15254;SDS011;7730;49.610;11.136;2023-12-07T05:06:38;15.07;;;8.53;;
15254;SDS011;7730;49.610;11.136;2023-12-07T05:09:09;15.33;;;8.83;;
15254;SDS011;7730;49.610;11.136;2023-12-07T05:11:40;15.23;;;8.50;;
15254;SDS011;7730;49.610;11.136;2023-12-07T05:14:07;15.47;;;8.50;;
15254;SDS011;7730;49.610;11.136;2023-12-07T05:16:36;16.13;;;8.50;;
15254;SDS011;7730;49.610;11.136;2023-12-07T05:19:07;14.20;;;8.30;;
15254;SDS011;7730;49.610;11.136;2023-12-07T05:21:34;14.93;;;8.07;;
15254;SDS011;7730;49.610;11.136;2023-12-07T05:24:01;17.53;;;11.00;;
15254;SDS011;7730;49.610;11.136;2023-12-07T05:26:29;17.60;;;10.87;;
15254;SDS011;7730;49.610;11.136;2023-12-07T05:28:57;15.17;;;9.30;;
15254;SDS011;7730;49.610;11.136;2023-12-07T05:31:25;15.45;;;9.10;;
15254;SDS011;7730;49.610;11.136;2023-12-07T05:33:52;14.75;;;8.80;;
15254;SDS011;7730;49.610;11.136;2023-12-07T05:36:20;14.93;;;8.73;;
15254;SDS011;7730;49.610;11.136;2023-12-07T05:38:47;15.40;;;8.50;;
15254;SDS011;7730;49.610;11.136;2023-12-07T05:41:14;15.77;;;8.87;;
15254;SDS011;7730;49.610;11.136;2023-12-07T05:43:43;15.07;;;8.77;;
15254;SDS011;7730;49.610;11.136;2023-12-07T05:46:10;14.47;;;8.37;;
15254;SDS011;7730;49.610;11.136;2023-12-07T05:48:37;18.70;;;9.40;;
15254;SDS011;7730;49.610;11.136;2023-12-07T05:51:04;16.67;;;10.73;;
15254;SDS011;7730;49.610;11.136;2023-12-07T05:53:33;16.50;;;9.77;;
15254;SDS011;7730;49.610;11.136;2023-12-07T05:56:01;16.27;;;10.10;;
15254;SDS011;7730;49.610;11.136;2023-12-07T05:58:28;16.10;;;9.73;;
15254;SDS011;7730;49.610;11.136;2023-12-07T06:00:57;16.47;;;10.03;;
15254;SDS011;7730;49.610;11.136;2023-12-07T06:03:24;15.90;;;9.50;;
15254;SDS011;7730;49.610;11.136;2023-12-07T06:05:51;16.80;;;10.20;;
15254;SDS011;7730;49.610;11.136;2023-12-07T06:08:18;17.33;;;9.50;;
15254;SDS011;7730;49.610;11.136;2023-12-07T06:10:47;16.47;;;9.07;;
15254;SDS011;7730;49.610;11.136;2023-12-07T06:13:14;15.30;;;9.23;;
15254;SDS011;7730;49.610;11.136;2023-12-07T06:15:41;16.77;;;9.90;;
15254;SDS011;7730;49.610;11.136;2023-12-07T06:18:09;16.80;;;9.73;;
15254;SDS011;7730;49.610;11.136;2023-12-07T06:20:36;17.53;;;10.63;;
15254;SDS011;7730;49.610;11.136;2023-12-07T06:23:03;17.60;;;11.40;;
15254;SDS011;7730;49.610;11.136;2023-12-07T06:25:31;16.63;;;10.87;;
15254;SDS011;7730;49.610;11.136;2023-12-07T06:28:00;16.50;;;10.73;;
15254;SDS011;7730;49.610;11.136;2023-12-07T06:30:27;17.33;;;11.03;;
15254;SDS011;7730;49.610;11.136;2023-12-07T06:32:54;17.70;;;11.30;;
15254;SDS011;7730;49.610;11.136;2023-12-07T06:35:21;18.83;;;11.47;;
15254;SDS011;7730;49.610;11.136;2023-12-07T06:37:48;16.70;;;10.70;;
15254;SDS011;7730;49.610;11.136;2023-12-07T06:40:16;17.17;;;11.10;;
15254;SDS011;7730;49.610;11.136;2023-12-07T06:42:47;17.30;;;10.90;;
15254;SDS011;7730;49.610;11.136;2023-12-07T06:45:16;16.57;;;10.73;;
15254;SDS011;7730;49.610;11.136;2023-12-07T06:47:43;17.90;;;10.93;;
15254;SDS011;7730;49.610;11.136;2023-12-07T06:50:10;17.27;;;10.80;;
15254;SDS011;7730;49.610;11.136;2023-12-07T06:52:39;16.47;;;10.33;;
15254;SDS011;7730;49.610;11.136;2023-12-07T06:55:10;15.97;;;10.17;;
15254;SDS011;7730;49.610;11.136;2023-12-07T06:57:40;15.77;;;10.10;;
15254;SDS011;7730;49.610;11.136;2023-12-07T07:00:07;16.23;;;9.93;;
15254;SDS011;7730;49.610;11.136;2023-12-07T07:02:38;16.23;;;10.07;;
15254;SDS011;7730;49.610;11.136;2023-12-07T07:05:05;16.30;;;10.30;;
15254;SDS011;7730;49.610;11.136;2023-12-07T07:07:36;16.00;;;10.10;;
15254;SDS011;7730;49.610;11.136;2023-12-07T07:10:03;15.57;;;9.43;;
15254;SDS011;7730;49.610;11.136;2023-12-07T07:12:31;14.70;;;8.87;;
15254;SDS011;7730;49.610;11.136;2023-12-07T07:14:58;15.87;;;9.70;;
15254;SDS011;7730;49.610;11.136;2023-12-07T07:17:25;16.40;;;9.40;;
15254;SDS011;7730;49.610;11.136;2023-12-07T07:19:55;16.07;;;9.53;;
15254;SDS011;7730;49.610;11.136;2023-12-07T07:22:25;14.67;;;9.10;;
15254;SDS011;7730;49.610;11.136;2023-12-07T07:24:52;15.30;;;9.13;;
15254;SDS011;7730;49.610;11.136;2023-12-07T07:27:19;15.60;;;9.00;;
15254;SDS011;7730;49.610;11.136;2023-12-07T07:29:48;15.40;;;9.17;;
15254;SDS011;7730;49.610;11.136;2023-12-07T07:32:15;15.30;;;9.30;;
15254;SDS011;7730;49.610;11.136;2023-12-07T07:34:42;15.57;;;9.77;;
15254;SDS011;7730;49.610;11.136;2023-12-07T07:37:10;16.23;;;9.17;;
15254;SDS011;7730;49.610;11.136;2023-12-07T07:39:37;15.33;;;8.70;;
15254;SDS011;7730;49.610;11.136;2023-12-07T07:42:04;16.10;;;9.33;;
15254;SDS011;7730;49.610;11.136;2023-12-07T07:44:33;19.70;;;12.50;;
15254;SDS011;7730;49.610;11.136;2023-12-07T07:47:00;20.80;;;11.80;;
15254;SDS011;7730;49.610;11.136;2023-12-07T07:49:27;18.43;;;12.10;;
15254;SDS011;7730;49.610;11.136;2023-12-07T07:51:54;18.43;;;11.70;;
15254;SDS011;7730;49.610;11.136;2023-12-07T07:54:22;18.40;;;11.50;;
15254;SDS011;7730;49.610;11.136;2023-12-07T07:56:50;17.33;;;10.57;;
15254;SDS011;7730;49.610;11.136;2023-12-07T07:59:17;17.27;;;11.53;;
15254;SDS011;7730;49.610;11.136;2023-12-07T08:01:45;17.63;;;10.60;;
15254;SDS011;7730;49.610;11.136;2023-12-07T08:04:16;16.43;;;10.07;;
15254;SDS011;7730;49.610;11.136;2023-12-07T08:06:43;17.23;;;10.27;;
15254;SDS011;7730;49.610;11.136;2023-12-07T08:09:10;15.70;;;9.57;;
15254;SDS011;7730;49.610;11.136;2023-12-07T08:11:38;17.87;;;11.63;;
15254;SDS011;7730;49.610;11.136;2023-12-07T08:14:07;18.57;;;11.10;;
15254;SDS011;7730;49.610;11.136;2023-12-07T08:16:34;18.90;;;10.70;;
15254;SDS011;7730;49.610;11.136;2023-12-07T08:19:04;18.03;;;10.73;;
15254;SDS011;7730;49.610;11.136;2023-12-07T08:21:31;16.87;;;10.17;;
15254;SDS011;7730;49.610;11.136;2023-12-07T08:23:58;16.53;;;10.50;;
15254;SDS011;7730;49.610;11.136;2023-12-07T08:26:25;16.40;;;9.80;;
15254;SDS011;7730;49.610;11.136;2023-12-07T08:28:54;16.97;;;10.40;;
15254;SDS011;7730;49.610;11.136;2023-12-07T08:31:21;17.17;;;10.27;;
15254;SDS011;7730;49.610;11.136;2023-12-07T08:33:50;17.50;;;10.13;;
15254;SDS011;7730;49.610;11.136;2023-12-07T08:36:20;16.33;;;10.23;;
15254;SDS011;7730;49.610;11.136;2023-12-07T08:38:53;16.58;;;10.55;;
15254;SDS011;7730;49.610;11.136;2023-12-07T08:41:20;15.77;;;9.20;;
15254;SDS011;7730;49.610;11.136;2023-12-07T08:43:47;18.23;;;10.70;;
15254;SDS011;7730;49.610;11.136;2023-12-07T08:46:15;17.33;;;11.10;;
15254;SDS011;7730;49.610;11.136;2023-12-07T08:48:43;18.73;;;12.47;;
15254;SDS011;7730;49.610;11.136;2023-12-07T08:51:10;18.27;;;11.60;;
15254;SDS011;7730;49.610;11.136;2023-12-07T08:53:37;18.40;;;11.77;;
15254;SDS011;7730;49.610;11.136;2023-12-07T08:56:05;20.23;;;14.17;;
15254;SDS011;7730;49.610;11.136;2023-12-07T08:58:32;17.87;;;11.60;;
15254;SDS011;7730;49.610;11.136;2023-12-07T09:00:59;17.70;;;10.67;;
15254;SDS011;7730;49.610;11.136;2023-12-07T09:03:27;18.17;;;11.70;;
15254;SDS011;7730;49.610;11.136;2023-12-07T09:05:56;18.23;;;11.27;;
15254;SDS011;7730;49.610;11.136;2023-12-07T09:08:26;18.20;;;10.90;;
15254;SDS011;7730;49.610;11.136;2023-12-07T09:10:53;17.83;;;10.97;;
15254;SDS011;7730;49.610;11.136;2023-12-07T09:13:21;21.67;;;14.70;;
15254;SDS011;7730;49.610;11.136;2023-12-07T09:15:48;21.90;;;15.27;;
15254;SDS011;7730;49.610;11.136;2023-12-07T09:18:15;20.40;;;14.13;;
15254;SDS011;7730;49.610;11.136;2023-12-07T09:20:45;19.20;;;13.47;;
15254;SDS011;7730;49.610;11.136;2023-12-07T09:23:14;19.93;;;13.63;;
15254;SDS011;7730;49.610;11.136;2023-12-07T09:25:42;19.10;;;12.87;;
15254;SDS011;7730;49.610;11.136;2023-12-07T09:28:09;18.60;;;12.57;;
15254;SDS011;7730;49.610;11.136;2023-12-07T09:30:36;17.70;;;12.10;;
15254;SDS011;7730;49.610;11.136;2023-12-07T09:33:04;19.10;;;13.17;;
15254;SDS011;7730;49.610;11.136;2023-12-07T09:35:31;19.33;;;13.07;;
15254;SDS011;7730;49.610;11.136;2023-12-07T09:38:00;19.80;;;12.97;;
15254;SDS011;7730;49.610;11.136;2023-12-07T09:40:33;19.80;;;13.37;;
15254;SDS011;7730;49.610;11.136;2023-12-07T09:43:00;20.33;;;13.70;;
15254;SDS011;7730;49.610;11.136;2023-12-07T09:45:29;19.10;;;12.57;;
15254;SDS011;7730;49.610;11.136;2023-12-07T09:47:57;18.90;;;12.67;;
15254;SDS011;7730;49.610;11.136;2023-12-07T09:50:25;17.63;;;11.40;;
15254;SDS011;7730;49.610;11.136;2023-12-07T09:52:54;18.87;;;12.10;;
15254;SDS011;7730;49.610;11.136;2023-12-07T09:55:25;19.23;;;13.03;;
15254;SDS011;7730;49.610;11.136;2023-12-07T09:57:52;18.97;;;12.77;;
15254;SDS011;7730;49.610;11.136;2023-12-07T10:00:22;19.37;;;12.47;;
15254;SDS011;7730;49.610;11.136;2023-12-07T10:02:52;22.00;;;13.93;;
15254;SDS011;7730;49.610;11.136;2023-12-07T10:05:19;19.37;;;13.53;;
15254;SDS011;7730;49.610;11.136;2023-12-07T10:07:47;19.50;;;12.50;;
15254;SDS011;7730;49.610;11.136;2023-12-07T10:10:15;19.23;;;13.60;;
15254;SDS011;7730;49.610;11.136;2023-12-07T10:12:47;20.13;;;13.70;;
15254;SDS011;7730;49.610;11.136;2023-12-07T10:15:15;19.67;;;13.27;;
15254;SDS011;7730;49.610;11.136;2023-12-07T10:17:46;21.07;;;13.83;;
15254;SDS011;7730;49.610;11.136;2023-12-07T10:20:13;19.97;;;14.10;;
15254;SDS011;7730;49.610;11.136;2023-12-07T10:22:40;21.73;;;13.93;;
15254;SDS011;7730;49.610;11.136;2023-12-07T10:25:10;19.80;;;13.27;;
15254;SDS011;7730;49.610;11.136;2023-12-07T10:27:42;19.17;;;13.40;;
15254;SDS011;7730;49.610;11.136;2023-12-07T10:30:12;21.27;;;13.87;;
15254;SDS011;7730;49.610;11.136;2023-12-07T10:32:39;19.07;;;14.00;;
15254;SDS011;7730;49.610;11.136;2023-12-07T10:35:08;20.23;;;13.87;;
15254;SDS011;7730;49.610;11.136;2023-12-07T10:37:37;19.43;;;13.50;;
15254;SDS011;7730;49.610;11.136;2023-12-07T10:40:06;20.40;;;14.20;;
15254;SDS011;7730;49.610;11.136;2023-12-07T10:42:34;20.83;;;13.93;;
15254;SDS011;7730;49.610;11.136;2023-12-07T10:45:03;19.43;;;13.70;;
15254;SDS011;7730;49.610;11.136;2023-12-07T10:47:32;20.10;;;13.93;;
15254;SDS011;7730;49.610;11.136;2023-12-07T10:50:02;19.83;;;13.73;;
15254;SDS011;7730;49.610;11.136;2023-12-07T10:52:36;19.43;;;13.63;;
15254;SDS011;7730;49.610;11.136;2023-12-07T10:55:06;18.70;;;12.93;;
15254;SDS011;7730;49.610;11.136;2023-12-07T10:57:34;19.47;;;13.70;;
15254;SDS011;7730;49.610;11.136;2023-12-07T11:00:02;19.83;;;13.93;;
15254;SDS011;7730;49.610;11.136;2023-12-07T11:02:35;19.93;;;13.37;;
15254;SDS011;7730;49.610;11.136;2023-12-07T11:05:03;19.60;;;13.30;;
15254;SDS011;7730;49.610;11.136;2023-12-07T11:07:33;19.97;;;13.67;;
15254;SDS011;7730;49.610;11.136;2023-12-07T11:10:07;20.80;;;14.93;;
15254;SDS011;7730;49.610;11.136;2023-12-07T11:12:39;19.93;;;13.40;;
15254;SDS011;7730;49.610;11.136;2023-12-07T11:15:13;21.47;;;14.03;;
15254;SDS011;7730;49.610;11.136;2023-12-07T11:17:53;19.50;;;13.90;;
15254;SDS011;7730;49.610;11.136;2023-12-07T11:20:21;19.13;;;13.43;;
15254;SDS011;7730;49.610;11.136;2023-12-07T11:22:55;18.47;;;12.77;;
15254;SDS011;7730;49.610;11.136;2023-12-07T11:25:25;18.77;;;12.80;;
15254;SDS011;7730;49.610;11.136;2023-12-07T11:27:59;20.23;;;13.33;;
15254;SDS011;7730;49.610;11.136;2023-12-07T11:30:30;21.00;;;13.83;;
15254;SDS011;7730;49.610;11.136;2023-12-07T11:33:06;20.70;;;12.70;;
15254;SDS011;7730;49.610;11.136;2023-12-07T11:35:39;19.05;;;13.40;;
15254;SDS011;7730;49.610;11.136;2023-12-07T11:38:21;19.60;;;13.80;;
15254;SDS011;7730;49.610;11.136;2023-12-07T11:40:49;20.70;;;13.40;;
15254;SDS011;7730;49.610;11.136;2023-12-07T11:43:17;20.00;;;13.60;;
15254;SDS011;7730;49.610;11.136;2023-12-07T11:45:46;19.10;;;13.27;;
15254;SDS011;7730;49.610;11.136;2023-12-07T11:48:17;20.40;;;13.40;;
15254;SDS011;7730;49.610;11.136;2023-12-07T11:50:53;19.90;;;13.50;;
15254;SDS011;7730;49.610;11.136;2023-12-07T11:53:24;20.53;;;13.63;;
15254;SDS011;7730;49.610;11.136;2023-12-07T11:55:51;19.57;;;13.63;;
15254;SDS011;7730;49.610;11.136;2023-12-07T11:58:18;20.57;;;14.60;;
15254;SDS011;7730;49.610;11.136;2023-12-07T12:00:47;20.23;;;14.30;;
15254;SDS011;7730;49.610;11.136;2023-12-07T12:03:14;21.10;;;15.57;;
15254;SDS011;7730;49.610;11.136;2023-12-07T12:05:43;20.80;;;15.10;;
15254;SDS011;7730;49.610;11.136;2023-12-07T12:08:10;21.20;;;14.60;;
15254;SDS011;7730;49.610;11.136;2023-12-07T12:10:40;20.93;;;14.47;;
15254;SDS011;7730;49.610;11.136;2023-12-07T12:13:08;21.60;;;14.67;;
15254;SDS011;7730;49.610;11.136;2023-12-07T12:15:38;21.33;;;14.63;;
15254;SDS011;7730;49.610;11.136;2023-12-07T12:18:05;19.87;;;13.90;;
15254;SDS011;7730;49.610;11.136;2023-12-07T12:20:33;20.93;;;14.30;;
15254;SDS011;7730;49.610;11.136;2023-12-07T12:23:01;21.53;;;14.10;;
15254;SDS011;7730;49.610;11.136;2023-12-07T12:25:30;20.43;;;13.70;;
15254;SDS011;7730;49.610;11.136;2023-12-07T12:27:57;21.37;;;14.60;;
15254;SDS011;7730;49.610;11.136;2023-12-07T12:30:26;20.50;;;14.33;;
15254;SDS011;7730;49.610;11.136;2023-12-07T12:32:53;19.43;;;14.00;;
15254;SDS011;7730;49.610;11.136;2023-12-07T12:35:20;19.37;;;12.77;;
15254;SDS011;7730;49.610;11.136;2023-12-07T12:37:50;19.25;;;12.52;;
15254;SDS011;7730;49.610;11.136;2023-12-07T12:40:26;21.93;;;15.30;;
15254;SDS011;7730;49.610;11.136;2023-12-07T12:42:54;20.83;;;13.77;;
15254;SDS011;7730;49.610;11.136;2023-12-07T12:45:24;18.67;;;12.53;;
15254;SDS011;7730;49.610;11.136;2023-12-07T12:47:53;17.93;;;12.10;;
15254;SDS011;7730;49.610;11.136;2023-12-07T12:50:34;19.17;;;12.43;;
15254;SDS011;7730;49.610;11.136;2023-12-07T12:53:02;19.53;;;12.20;;
15254;SDS011;7730;49.610;11.136;2023-12-07T12:55:32;18.60;;;12.43;;
15254;SDS011;7730;49.610;11.136;2023-12-07T12:57:59;18.63;;;12.70;;
15254;SDS011;7730;49.610;11.136;2023-12-07T13:00:29;19.03;;;12.80;;
15254;SDS011;7730;49.610;11.136;2023-12-07T13:02:59;18.50;;;12.63;;
15254;SDS011;7730;49.610;11.136;2023-12-07T13:05:26;19.13;;;12.90;;
15254;SDS011;7730;49.610;11.136;2023-12-07T13:08:04;19.27;;;12.87;;
15254;SDS011;7730;49.610;11.136;2023-12-07T13:10:35;20.13;;;12.87;;
15254;SDS011;7730;49.610;11.136;2023-12-07T13:13:03;19.07;;;12.83;;
15254;SDS011;7730;49.610;11.136;2023-12-07T13:15:32;19.70;;;13.17;;
15254;SDS011;7730;49.610;11.136;2023-12-07T13:18:00;20.17;;;12.93;;
15254;SDS011;7730;49.610;11.136;2023-12-07T13:20:27;19.53;;;12.20;;
15254;SDS011;7730;49.610;11.136;2023-12-07T13:22:57;18.43;;;12.13;;
15254;SDS011;7730;49.610;11.136;2023-12-07T13:25:23;19.40;;;13.20;;
15254;SDS011;7730;49.610;11.136;2023-12-07T13:27:54;19.97;;;13.73;;
15254;SDS011;7730;49.610;11.136;2023-12-07T13:30:21;20.45;;;13.82;;
15254;SDS011;7730;49.610;11.136;2023-12-07T13:32:51;20.50;;;13.93;;
15254;SDS011;7730;49.610;11.136;2023-12-07T13:35:18;19.70;;;13.65;;
15254;SDS011;7730;49.610;11.136;2023-12-07T13:37:45;22.20;;;14.70;;
15254;SDS011;7730;49.610;11.136;2023-12-07T13:40:12;19.97;;;14.37;;
15254;SDS011;7730;49.610;11.136;2023-12-07T13:42:40;18.70;;;13.23;;
15254;SDS011;7730;49.610;11.136;2023-12-07T13:45:11;19.30;;;13.07;;
15254;SDS011;7730;49.610;11.136;2023-12-07T13:47:38;19.27;;;13.07;;
15254;SDS011;7730;49.610;11.136;2023-12-07T13:50:06;19.30;;;12.73;;
15254;SDS011;7730;49.610;11.136;2023-12-07T13:52:33;18.73;;;12.37;;
15254;SDS011;7730;49.610;11.136;2023-12-07T13:55:02;18.53;;;11.83;;
15254;SDS011;7730;49.610;11.136;2023-12-07T13:57:34;18.10;;;10.70;;
15254;SDS011;7730;49.610;11.136;2023-12-07T14:00:01;17.50;;;11.17;;
15254;SDS011;7730;49.610;11.136;2023-12-07T14:02:29;16.93;;;10.40;;
15254;SDS011;7730;49.610;11.136;2023-12-07T14:04:58;17.33;;;11.03;;
15254;SDS011;7730;49.610;11.136;2023-12-07T14:07:25;17.67;;;10.83;;
15254;SDS011;7730;49.610;11.136;2023-12-07T14:09:52;16.57;;;10.53;;
15254;SDS011;7730;49.610;11.136;2023-12-07T14:12:20;16.70;;;10.47;;
15254;SDS011;7730;49.610;11.136;2023-12-07T14:14:48;16.80;;;10.60;;
15254;SDS011;7730;49.610;11.136;2023-12-07T14:17:15;17.30;;;10.85;;
15254;SDS011;7730;49.610;11.136;2023-12-07T14:19:44;16.65;;;10.73;;
15254;SDS011;7730;49.610;11.136;2023-12-07T14:22:13;16.23;;;9.90;;
15254;SDS011;7730;49.610;11.136;2023-12-07T14:24:42;18.48;;;10.05;;
15254;SDS011;7730;49.610;11.136;2023-12-07T14:27:10;16.33;;;10.23;;
15254;SDS011;7730;49.610;11.136;2023-12-07T14:29:37;16.40;;;10.47;;
15254;SDS011;7730;49.610;11.136;2023-12-07T14:32:05;17.10;;;10.70;;
15254;SDS011;7730;49.610;11.136;2023-12-07T14:34:32;16.93;;;10.00;;